sensor_id;sensor_type;location;lat;lon;timestamp;pressure;altitude;pressure_sealevel;temperature;humidity
35952;BME280;22035;51.406;16.194;2023-05-11T00:01:51;100016.93;;;32.06;17.99
35952;BME280;22035;51.406;16.194;2023-05-11T00:04:16;100015.86;;;32.11;17.93
35952;BME280;22035;51.406;16.194;2023-05-11T00:06:42;100016.58;;;32.13;17.90
35952;BME280;22035;51.406;16.194;2023-05-11T00:09:08;100013.99;;;32.11;17.93
35952;BME280;22035;51.406;16.194;2023-05-11T00:11:33;100015.53;;;32.00;18.03
35952;BME280;22035;51.406;16.194;2023-05-11T00:13:59;100016.11;;;31.89;18.14
35952;BME280;22035;51.406;16.194;2023-05-11T00:16:25;100016.86;;;31.80;18.23
35952;BME280;22035;51.406;16.194;2023-05-11T00:18:50;100016.34;;;31.93;18.10
35952;BME280;22035;51.406;16.194;2023-05-11T00:21:16;100015.62;;;32.12;17.91
35952;BME280;22035;51.406;16.194;2023-05-11T00:23:42;100019.07;;;32.03;17.98
35952;BME280;22035;51.406;16.194;2023-05-11T00:26:07;100017.86;;;32.16;17.86
35952;BME280;22035;51.406;16.194;2023-05-11T00:28:33;100013.51;;;32.00;18.01
35952;BME280;22035;51.406;16.194;2023-05-11T00:30:59;100016.21;;;32.01;17.99
35952;BME280;22035;51.406;16.194;2023-05-11T00:33:24;100013.93;;;32.04;17.96
35952;BME280;22035;51.406;16.194;2023-05-11T00:35:50;100012.68;;;31.93;18.06
35952;BME280;22035;51.406;16.194;2023-05-11T00:38:16;100017.82;;;32.01;17.99
35952;BME280;22035;51.406;16.194;2023-05-11T00:40:42;100015.22;;;31.89;18.10
35952;BME280;22035;51.406;16.194;2023-05-11T00:43:07;100018.20;;;31.98;18.00
35952;BME280;22035;51.406;16.194;2023-05-11T00:45:34;100017.08;;;31.99;18.00
35952;BME280;22035;51.406;16.194;2023-05-11T00:48:00;100018.55;;;31.91;18.07
35952;BME280;22035;51.406;16.194;2023-05-11T00:50:26;100020.14;;;32.01;17.97
35952;BME280;22035;51.406;16.194;2023-05-11T00:52:52;100018.65;;;32.00;17.98
35952;BME280;22035;51.406;16.194;2023-05-11T00:55:18;100018.30;;;32.03;17.95
35952;BME280;22035;51.406;16.194;2023-05-11T00:57:44;100017.69;;;32.12;17.85
35952;BME280;22035;51.406;16.194;2023-05-11T01:00:11;100015.82;;;32.07;17.89
35952;BME280;22035;51.406;16.194;2023-05-11T01:02:37;100014.28;;;31.84;18.13
35952;BME280;22035;51.406;16.194;2023-05-11T01:05:04;100018.52;;;32.04;17.94
35952;BME280;22035;51.406;16.194;2023-05-11T01:07:33;100023.14;;;32.03;17.93
35952;BME280;22035;51.406;16.194;2023-05-11T01:10:07;100020.06;;;31.96;18.00
35952;BME280;22035;51.406;16.194;2023-05-11T01:12:44;100021.02;;;32.00;17.95
35952;BME280;22035;51.406;16.194;2023-05-11T01:15:15;100021.07;;;32.05;17.92
35952;BME280;22035;51.406;16.194;2023-05-11T01:17:47;100021.73;;;32.06;17.90
35952;BME280;22035;51.406;16.194;2023-05-11T01:20:17;100021.70;;;32.12;17.83
35952;BME280;22035;51.406;16.194;2023-05-11T01:23:03;100021.71;;;32.03;17.91
35952;BME280;22035;51.406;16.194;2023-05-11T01:25:47;100028.35;;;32.07;17.88
35952;BME280;22035;51.406;16.194;2023-05-11T01:28:24;100026.59;;;32.05;17.88
35952;BME280;22035;51.406;16.194;2023-05-11T01:30:56;100025.07;;;31.86;18.07
35952;BME280;22035;51.406;16.194;2023-05-11T01:33:31;100025.18;;;31.93;18.00
35952;BME280;22035;51.406;16.194;2023-05-11T01:36:02;100025.31;;;32.00;17.93
35952;BME280;22035;51.406;16.194;2023-05-11T01:38:32;100029.49;;;31.92;18.00
35952;BME280;22035;51.406;16.194;2023-05-11T01:41:00;100032.08;;;31.81;18.11
35952;BME280;22035;51.406;16.194;2023-05-11T01:43:28;100032.76;;;31.93;18.00
35952;BME280;22035;51.406;16.194;2023-05-11T01:45:58;100034.26;;;31.86;18.04
35952;BME280;22035;51.406;16.194;2023-05-11T01:48:28;100032.11;;;31.90;18.01
35952;BME280;22035;51.406;16.194;2023-05-11T01:50:56;100036.19;;;31.97;17.94
35952;BME280;22035;51.406;16.194;2023-05-11T01:53:26;100037.55;;;31.92;18.00
35952;BME280;22035;51.406;16.194;2023-05-11T01:55:53;100036.73;;;31.92;17.98
35952;BME280;22035;51.406;16.194;2023-05-11T01:58:20;100035.94;;;31.94;17.96
35952;BME280;22035;51.406;16.194;2023-05-11T02:00:47;100042.78;;;31.86;18.03
35952;BME280;22035;51.406;16.194;2023-05-11T02:03:14;100043.47;;;31.94;17.96
35952;BME280;22035;51.406;16.194;2023-05-11T02:05:41;100043.90;;;31.97;17.92
35952;BME280;22035;51.406;16.194;2023-05-11T02:08:08;100046.98;;;31.88;18.00
35952;BME280;22035;51.406;16.194;2023-05-11T02:10:35;100044.36;;;31.96;17.93
35952;BME280;22035;51.406;16.194;2023-05-11T02:13:03;100044.36;;;31.83;18.04
35952;BME280;22035;51.406;16.194;2023-05-11T02:15:30;100041.57;;;31.90;17.98
35952;BME280;22035;51.406;16.194;2023-05-11T02:17:56;100043.03;;;31.94;17.94
35952;BME280;22035;51.406;16.194;2023-05-11T02:20:24;100042.69;;;31.88;17.99
35952;BME280;22035;51.406;16.194;2023-05-11T02:22:50;100039.88;;;31.89;17.97
35952;BME280;22035;51.406;16.194;2023-05-11T02:25:18;100044.14;;;31.88;17.99
35952;BME280;22035;51.406;16.194;2023-05-11T02:27:44;100045.81;;;31.84;18.02
35952;BME280;22035;51.406;16.194;2023-05-11T02:30:10;100042.18;;;31.78;18.08
35952;BME280;22035;51.406;16.194;2023-05-11T02:32:38;100040.31;;;31.95;17.91
35952;BME280;22035;51.406;16.194;2023-05-11T02:35:17;100043.72;;;31.80;18.05
35952;BME280;22035;51.406;16.194;2023-05-11T02:37:45;100042.67;;;31.93;17.92
35952;BME280;22035;51.406;16.194;2023-05-11T02:40:15;100039.80;;;31.95;17.89
35952;BME280;22035;51.406;16.194;2023-05-11T02:42:42;100043.28;;;31.88;17.95
35952;BME280;22035;51.406;16.194;2023-05-11T02:45:11;100045.22;;;31.89;17.95
35952;BME280;22035;51.406;16.194;2023-05-11T02:47:41;100043.19;;;31.89;17.95
35952;BME280;22035;51.406;16.194;2023-05-11T02:50:08;100044.92;;;31.92;17.91
35952;BME280;22035;51.406;16.194;2023-05-11T02:52:35;100042.45;;;31.95;17.88
35952;BME280;22035;51.406;16.194;2023-05-11T02:55:05;100042.16;;;31.92;17.92
35952;BME280;22035;51.406;16.194;2023-05-11T02:57:31;100045.37;;;31.89;17.93
35952;BME280;22035;51.406;16.194;2023-05-11T02:59:57;100046.36;;;31.74;18.07
35952;BME280;22035;51.406;16.194;2023-05-11T03:02:22;100039.48;;;31.82;17.98
35952;BME280;22035;51.406;16.194;2023-05-11T03:04:48;100038.77;;;31.94;17.86
35952;BME280;22035;51.406;16.194;2023-05-11T03:07:14;100040.31;;;31.89;17.91
35952;BME280;22035;51.406;16.194;2023-05-11T03:09:40;100042.76;;;31.83;17.96
35952;BME280;22035;51.406;16.194;2023-05-11T03:12:06;100045.74;;;31.91;17.90
35952;BME280;22035;51.406;16.194;2023-05-11T03:14:33;100044.86;;;31.88;17.91
35952;BME280;22035;51.406;16.194;2023-05-11T03:16:59;100045.70;;;31.88;17.90
35952;BME280;22035;51.406;16.194;2023-05-11T03:19:26;100049.06;;;31.87;17.90
35952;BME280;22035;51.406;16.194;2023-05-11T03:21:53;100047.82;;;31.84;17.94
35952;BME280;22035;51.406;16.194;2023-05-11T03:24:19;100048.94;;;31.90;17.88
35952;BME280;22035;51.406;16.194;2023-05-11T03:26:46;100046.65;;;31.93;17.82
35952;BME280;22035;51.406;16.194;2023-05-11T03:29:13;100047.84;;;31.86;17.91
35952;BME280;22035;51.406;16.194;2023-05-11T03:31:39;100048.13;;;31.89;17.86
35952;BME280;22035;51.406;16.194;2023-05-11T03:34:05;100042.72;;;31.95;17.80
35952;BME280;22035;51.406;16.194;2023-05-11T03:36:31;100045.08;;;31.85;17.90
35952;BME280;22035;51.406;16.194;2023-05-11T03:38:58;100047.84;;;31.84;17.91
35952;BME280;22035;51.406;16.194;2023-05-11T03:41:25;100049.32;;;31.80;17.96
35952;BME280;22035;51.406;16.194;2023-05-11T03:43:53;100049.03;;;31.83;17.92
35952;BME280;22035;51.406;16.194;2023-05-11T03:46:21;100049.44;;;31.81;17.94
35952;BME280;22035;51.406;16.194;2023-05-11T03:48:49;100051.45;;;31.85;17.89
35952;BME280;22035;51.406;16.194;2023-05-11T03:51:15;100052.84;;;31.87;17.89
35952;BME280;22035;51.406;16.194;2023-05-11T03:53:41;100053.83;;;31.88;17.85
35952;BME280;22035;51.406;16.194;2023-05-11T03:56:07;100055.19;;;31.88;17.85
35952;BME280;22035;51.406;16.194;2023-05-11T03:58:37;100054.78;;;31.83;17.89
35952;BME280;22035;51.406;16.194;2023-05-11T04:01:03;100054.43;;;31.86;17.86
35952;BME280;22035;51.406;16.194;2023-05-11T04:03:29;100053.71;;;31.91;17.81
35952;BME280;22035;51.406;16.194;2023-05-11T04:05:54;100053.78;;;31.87;17.84
35952;BME280;22035;51.406;16.194;2023-05-11T04:08:20;100053.07;;;31.85;17.86
35952;BME280;22035;51.406;16.194;2023-05-11T04:10:46;100059.51;;;31.89;17.82
35952;BME280;22035;51.406;16.194;2023-05-11T04:13:12;100060.75;;;31.87;17.84
35952;BME280;22035;51.406;16.194;2023-05-11T04:15:37;100060.17;;;31.87;17.84
35952;BME280;22035;51.406;16.194;2023-05-11T04:18:03;100061.54;;;31.91;17.78
35952;BME280;22035;51.406;16.194;2023-05-11T04:20:29;100064.38;;;31.80;17.90
35952;BME280;22035;51.406;16.194;2023-05-11T04:22:54;100063.52;;;31.79;17.91
35952;BME280;22035;51.406;16.194;2023-05-11T04:25:20;100060.95;;;31.86;17.83
35952;BME280;22035;51.406;16.194;2023-05-11T04:27:46;100060.06;;;31.86;17.84
35952;BME280;22035;51.406;16.194;2023-05-11T04:30:12;100062.21;;;31.85;17.83
35952;BME280;22035;51.406;16.194;2023-05-11T04:32:37;100068.93;;;31.77;17.92
35952;BME280;22035;51.406;16.194;2023-05-11T04:35:03;100070.28;;;31.85;17.84
35952;BME280;22035;51.406;16.194;2023-05-11T04:37:29;100068.07;;;31.82;17.86
35952;BME280;22035;51.406;16.194;2023-05-11T04:39:55;100076.03;;;31.79;17.90
35952;BME280;22035;51.406;16.194;2023-05-11T04:42:21;100075.71;;;31.68;18.00
35952;BME280;22035;51.406;16.194;2023-05-11T04:44:47;100076.64;;;31.65;18.03
35952;BME280;22035;51.406;16.194;2023-05-11T04:47:13;100077.43;;;31.79;17.88
35952;BME280;22035;51.406;16.194;2023-05-11T04:49:39;100074.21;;;31.88;17.80
35952;BME280;22035;51.406;16.194;2023-05-11T04:52:04;100076.75;;;31.87;17.81
35952;BME280;22035;51.406;16.194;2023-05-11T04:54:30;100077.32;;;31.89;17.79
35952;BME280;22035;51.406;16.194;2023-05-11T04:56:56;100078.54;;;31.93;17.77
35952;BME280;22035;51.406;16.194;2023-05-11T04:59:21;100085.99;;;31.84;17.84
35952;BME280;22035;51.406;16.194;2023-05-11T05:01:47;100083.47;;;31.74;17.94
35952;BME280;22035;51.406;16.194;2023-05-11T05:04:12;100084.37;;;31.80;17.90
35952;BME280;22035;51.406;16.194;2023-05-11T05:06:38;100085.71;;;31.84;17.85
35952;BME280;22035;51.406;16.194;2023-05-11T05:09:04;100085.76;;;31.79;17.91
35952;BME280;22035;51.406;16.194;2023-05-11T05:11:29;100086.35;;;31.82;17.88
35952;BME280;22035;51.406;16.194;2023-05-11T05:13:55;100087.04;;;31.82;17.86
35952;BME280;22035;51.406;16.194;2023-05-11T05:16:21;100091.01;;;32.00;17.71
35952;BME280;22035;51.406;16.194;2023-05-11T05:18:46;100095.70;;;31.89;17.80
35952;BME280;22035;51.406;16.194;2023-05-11T05:21:12;100092.33;;;32.01;17.70
35952;BME280;22035;51.406;16.194;2023-05-11T05:23:38;100091.87;;;31.99;17.74
35952;BME280;22035;51.406;16.194;2023-05-11T05:26:03;100096.55;;;31.79;17.91
35952;BME280;22035;51.406;16.194;2023-05-11T05:28:29;100096.43;;;31.95;17.76
35952;BME280;22035;51.406;16.194;2023-05-11T05:30:55;100096.75;;;31.96;17.75
35952;BME280;22035;51.406;16.194;2023-05-11T05:33:20;100098.86;;;31.81;17.89
35952;BME280;22035;51.406;16.194;2023-05-11T05:35:46;100100.35;;;31.84;17.85
35952;BME280;22035;51.406;16.194;2023-05-11T05:38:12;100100.56;;;31.83;17.88
35952;BME280;22035;51.406;16.194;2023-05-11T05:40:38;100100.40;;;31.94;17.80
35952;BME280;22035;51.406;16.194;2023-05-11T05:43:03;100101.93;;;31.95;17.80
35952;BME280;22035;51.406;16.194;2023-05-11T05:45:29;100104.38;;;31.81;17.93
35952;BME280;22035;51.406;16.194;2023-05-11T05:47:55;100102.02;;;31.90;17.89
35952;BME280;22035;51.406;16.194;2023-05-11T05:50:20;100102.90;;;31.87;17.90
35952;BME280;22035;51.406;16.194;2023-05-11T05:52:46;100102.03;;;31.95;17.87
35952;BME280;22035;51.406;16.194;2023-05-11T05:55:12;100104.28;;;31.88;17.94
35952;BME280;22035;51.406;16.194;2023-05-11T05:57:37;100102.88;;;32.16;17.68
35952;BME280;22035;51.406;16.194;2023-05-11T06:00:04;100104.61;;;32.17;17.68
35952;BME280;22035;51.406;16.194;2023-05-11T06:02:30;100101.41;;;32.34;17.54
35952;BME280;22035;51.406;16.194;2023-05-11T06:04:55;100104.47;;;32.51;17.39
35952;BME280;22035;51.406;16.194;2023-05-11T06:07:21;100104.52;;;32.44;17.48
35952;BME280;22035;51.406;16.194;2023-05-11T06:09:47;100101.91;;;32.40;17.51
35952;BME280;22035;51.406;16.194;2023-05-11T06:12:12;100114.04;;;32.28;17.62
35952;BME280;22035;51.406;16.194;2023-05-11T06:14:38;100113.54;;;32.51;17.37
35952;BME280;22035;51.406;16.194;2023-05-11T06:17:03;100115.84;;;32.48;17.45
35952;BME280;22035;51.406;16.194;2023-05-11T06:19:29;100113.39;;;32.42;17.49
35952;BME280;22035;51.406;16.194;2023-05-11T06:21:55;100114.65;;;32.38;17.50
35952;BME280;22035;51.406;16.194;2023-05-11T06:24:20;100116.21;;;32.34;17.58
35952;BME280;22035;51.406;16.194;2023-05-11T06:26:46;100117.50;;;32.46;17.50
35952;BME280;22035;51.406;16.194;2023-05-11T06:29:12;100119.10;;;32.41;17.49
35952;BME280;22035;51.406;16.194;2023-05-11T06:31:37;100124.56;;;32.34;17.57
35952;BME280;22035;51.406;16.194;2023-05-11T06:34:03;100120.43;;;32.58;17.39
35952;BME280;22035;51.406;16.194;2023-05-11T06:36:28;100116.40;;;32.57;17.37
35952;BME280;22035;51.406;16.194;2023-05-11T06:38:55;100117.04;;;32.41;17.50
35952;BME280;22035;51.406;16.194;2023-05-11T06:41:20;100120.90;;;32.56;17.43
35952;BME280;22035;51.406;16.194;2023-05-11T06:43:46;100118.51;;;32.65;17.33
35952;BME280;22035;51.406;16.194;2023-05-11T06:46:11;100117.95;;;32.51;17.43
35952;BME280;22035;51.406;16.194;2023-05-11T06:48:37;100119.63;;;32.43;17.54
35952;BME280;22035;51.406;16.194;2023-05-11T06:51:03;100119.91;;;32.43;17.54
35952;BME280;22035;51.406;16.194;2023-05-11T06:53:29;100118.60;;;32.57;17.44
35952;BME280;22035;51.406;16.194;2023-05-11T06:55:55;100121.53;;;32.67;17.36
35952;BME280;22035;51.406;16.194;2023-05-11T06:58:20;100119.26;;;32.76;17.27
35952;BME280;22035;51.406;16.194;2023-05-11T07:00:46;100117.12;;;32.73;17.29
35952;BME280;22035;51.406;16.194;2023-05-11T07:03:12;100118.10;;;32.79;17.24
35952;BME280;22035;51.406;16.194;2023-05-11T07:05:37;100118.57;;;32.80;17.23
35952;BME280;22035;51.406;16.194;2023-05-11T07:08:03;100118.18;;;32.76;17.28
35952;BME280;22035;51.406;16.194;2023-05-11T07:10:30;100119.04;;;32.84;17.21
35952;BME280;22035;51.406;16.194;2023-05-11T07:12:55;100118.70;;;32.83;17.20
35952;BME280;22035;51.406;16.194;2023-05-11T07:15:21;100118.09;;;32.80;17.24
35952;BME280;22035;51.406;16.194;2023-05-11T07:17:47;100117.44;;;32.77;17.26
35952;BME280;22035;51.406;16.194;2023-05-11T07:20:13;100117.71;;;32.80;17.21
35952;BME280;22035;51.406;16.194;2023-05-11T07:22:38;100116.48;;;32.79;17.25
35952;BME280;22035;51.406;16.194;2023-05-11T07:25:05;100118.61;;;32.85;17.20
35952;BME280;22035;51.406;16.194;2023-05-11T07:27:31;100120.01;;;32.81;17.22
35952;BME280;22035;51.406;16.194;2023-05-11T07:29:56;100115.24;;;32.85;17.18
35952;BME280;22035;51.406;16.194;2023-05-11T07:32:22;100115.35;;;32.87;17.20
35952;BME280;22035;51.406;16.194;2023-05-11T07:34:47;100118.36;;;32.83;17.23
35952;BME280;22035;51.406;16.194;2023-05-11T07:37:13;100117.18;;;32.88;17.19
35952;BME280;22035;51.406;16.194;2023-05-11T07:39:39;100115.59;;;32.80;17.27
35952;BME280;22035;51.406;16.194;2023-05-11T07:42:04;100118.03;;;32.84;17.24
35952;BME280;22035;51.406;16.194;2023-05-11T07:44:30;100121.56;;;32.76;17.31
35952;BME280;22035;51.406;16.194;2023-05-11T07:46:56;100121.80;;;32.79;17.32
35952;BME280;22035;51.406;16.194;2023-05-11T07:49:21;100119.61;;;32.83;17.28
35952;BME280;22035;51.406;16.194;2023-05-11T07:51:47;100118.03;;;32.82;17.28
35952;BME280;22035;51.406;16.194;2023-05-11T07:54:13;100117.57;;;32.77;17.32
35952;BME280;22035;51.406;16.194;2023-05-11T07:56:39;100117.15;;;32.83;17.27
35952;BME280;22035;51.406;16.194;2023-05-11T07:59:05;100114.90;;;32.82;17.30
35952;BME280;22035;51.406;16.194;2023-05-11T08:01:30;100119.24;;;32.79;17.33
35952;BME280;22035;51.406;16.194;2023-05-11T08:03:56;100114.59;;;32.77;17.36
35952;BME280;22035;51.406;16.194;2023-05-11T08:06:22;100115.56;;;32.76;17.37
35952;BME280;22035;51.406;16.194;2023-05-11T08:08:47;100115.57;;;32.81;17.33
35952;BME280;22035;51.406;16.194;2023-05-11T08:11:13;100117.43;;;32.76;17.40
35952;BME280;22035;51.406;16.194;2023-05-11T08:13:38;100118.55;;;32.75;17.40
35952;BME280;22035;51.406;16.194;2023-05-11T08:16:05;100116.88;;;32.74;17.43
35952;BME280;22035;51.406;16.194;2023-05-11T08:18:31;100118.19;;;32.76;17.40
35952;BME280;22035;51.406;16.194;2023-05-11T08:20:56;100117.76;;;32.79;17.38
35952;BME280;22035;51.406;16.194;2023-05-11T08:23:22;100118.92;;;32.82;17.35
35952;BME280;22035;51.406;16.194;2023-05-11T08:25:49;100120.10;;;32.78;17.39
35952;BME280;22035;51.406;16.194;2023-05-11T08:28:14;100118.50;;;32.66;17.51
35952;BME280;22035;51.406;16.194;2023-05-11T08:30:40;100118.65;;;32.75;17.43
35952;BME280;22035;51.406;16.194;2023-05-11T08:33:06;100117.36;;;32.76;17.44
35952;BME280;22035;51.406;16.194;2023-05-11T08:35:31;100113.56;;;32.67;17.51
35952;BME280;22035;51.406;16.194;2023-05-11T08:37:57;100117.06;;;32.73;17.49
35952;BME280;22035;51.406;16.194;2023-05-11T08:40:25;100121.71;;;32.77;17.45
35952;BME280;22035;51.406;16.194;2023-05-11T08:42:54;100120.34;;;32.78;17.44
35952;BME280;22035;51.406;16.194;2023-05-11T08:45:20;100117.33;;;32.70;17.53
35952;BME280;22035;51.406;16.194;2023-05-11T08:47:47;100117.24;;;32.67;17.55
35952;BME280;22035;51.406;16.194;2023-05-11T08:50:13;100120.12;;;32.63;17.53
35952;BME280;22035;51.406;16.194;2023-05-11T08:52:39;100123.27;;;32.60;17.64
35952;BME280;22035;51.406;16.194;2023-05-11T08:55:06;100124.08;;;32.63;17.62
35952;BME280;22035;51.406;16.194;2023-05-11T08:57:33;100121.59;;;32.67;17.58
35952;BME280;22035;51.406;16.194;2023-05-11T09:00:00;100120.38;;;32.66;17.60
35952;BME280;22035;51.406;16.194;2023-05-11T09:02:27;100118.80;;;32.49;17.77
35952;BME280;22035;51.406;16.194;2023-05-11T09:04:53;100116.00;;;32.46;17.80
35952;BME280;22035;51.406;16.194;2023-05-11T09:07:20;100120.49;;;32.56;17.70
35952;BME280;22035;51.406;16.194;2023-05-11T09:09:47;100113.78;;;32.43;17.84
35952;BME280;22035;51.406;16.194;2023-05-11T09:12:12;100111.37;;;32.54;17.74
35952;BME280;22035;51.406;16.194;2023-05-11T09:14:38;100115.32;;;32.45;17.83
35952;BME280;22035;51.406;16.194;2023-05-11T09:17:04;100113.53;;;32.58;17.70
35952;BME280;22035;51.406;16.194;2023-05-11T09:19:30;100107.73;;;32.48;17.80
35952;BME280;22035;51.406;16.194;2023-05-11T09:21:55;100110.73;;;32.40;17.89
35952;BME280;22035;51.406;16.194;2023-05-11T09:24:23;100108.55;;;32.52;17.78
35952;BME280;22035;51.406;16.194;2023-05-11T09:26:50;100111.85;;;32.48;17.81
35952;BME280;22035;51.406;16.194;2023-05-11T09:29:30;100108.56;;;32.47;17.82
35952;BME280;22035;51.406;16.194;2023-05-11T09:31:55;100109.48;;;32.42;17.88
35952;BME280;22035;51.406;16.194;2023-05-11T09:34:22;100106.91;;;32.55;17.76
35952;BME280;22035;51.406;16.194;2023-05-11T09:36:49;100105.60;;;32.58;17.73
35952;BME280;22035;51.406;16.194;2023-05-11T09:39:16;100107.18;;;32.50;17.79
35952;BME280;22035;51.406;16.194;2023-05-11T09:41:42;100102.52;;;32.48;17.83
35952;BME280;22035;51.406;16.194;2023-05-11T09:44:09;100105.57;;;32.58;17.74
35952;BME280;22035;51.406;16.194;2023-05-11T09:46:36;100093.23;;;32.47;17.85
35952;BME280;22035;51.406;16.194;2023-05-11T09:49:02;100101.60;;;32.46;17.87
35952;BME280;22035;51.406;16.194;2023-05-11T09:51:29;100101.36;;;32.55;17.78
35952;BME280;22035;51.406;16.194;2023-05-11T09:53:56;100098.05;;;32.55;17.76
35952;BME280;22035;51.406;16.194;2023-05-11T09:56:22;100103.41;;;32.58;17.75
35952;BME280;22035;51.406;16.194;2023-05-11T09:58:49;100102.93;;;32.59;17.73
35952;BME280;22035;51.406;16.194;2023-05-11T10:01:17;100095.67;;;32.61;17.72
35952;BME280;22035;51.406;16.194;2023-05-11T10:03:47;100092.61;;;32.52;17.80
35952;BME280;22035;51.406;16.194;2023-05-11T10:06:14;100089.20;;;32.58;17.74
35952;BME280;22035;51.406;16.194;2023-05-11T10:08:40;100092.17;;;32.45;17.88
35952;BME280;22035;51.406;16.194;2023-05-11T10:11:06;100088.40;;;32.59;17.73
35952;BME280;22035;51.406;16.194;2023-05-11T10:13:32;100090.37;;;32.49;17.82
35952;BME280;22035;51.406;16.194;2023-05-11T10:16:00;100092.23;;;32.57;17.75
35952;BME280;22035;51.406;16.194;2023-05-11T10:18:27;100088.54;;;32.59;17.74
35952;BME280;22035;51.406;16.194;2023-05-11T10:20:53;100087.77;;;32.49;17.83
35952;BME280;22035;51.406;16.194;2023-05-11T10:23:19;100085.46;;;32.49;17.83
35952;BME280;22035;51.406;16.194;2023-05-11T10:25:46;100091.14;;;32.44;17.90
35952;BME280;22035;51.406;16.194;2023-05-11T10:28:11;100087.46;;;32.41;17.92
35952;BME280;22035;51.406;16.194;2023-05-11T10:30:37;100085.70;;;32.45;17.88
35952;BME280;22035;51.406;16.194;2023-05-11T10:33:05;100083.13;;;32.38;17.95
35952;BME280;22035;51.406;16.194;2023-05-11T10:35:31;100085.26;;;32.37;17.96
35952;BME280;22035;51.406;16.194;2023-05-11T10:37:57;100077.26;;;32.43;17.90
35952;BME280;22035;51.406;16.194;2023-05-11T10:40:23;100081.30;;;32.36;17.96
35952;BME280;22035;51.406;16.194;2023-05-11T10:44:10;100080.53;;;32.52;17.81
35952;BME280;22035;51.406;16.194;2023-05-11T10:46:53;100080.91;;;32.50;17.81
35952;BME280;22035;51.406;16.194;2023-05-11T10:49:35;100081.91;;;32.46;17.86
35952;BME280;22035;51.406;16.194;2023-05-11T10:52:23;100074.47;;;32.33;17.99
35952;BME280;22035;51.406;16.194;2023-05-11T10:55:06;100062.22;;;32.46;17.85
35952;BME280;22035;51.406;16.194;2023-05-11T10:57:47;100080.31;;;32.50;17.81
35952;BME280;22035;51.406;16.194;2023-05-11T11:00:44;100071.86;;;32.44;17.87
35952;BME280;22035;51.406;16.194;2023-05-11T11:03:16;100075.80;;;32.41;17.90
35952;BME280;22035;51.406;16.194;2023-05-11T11:05:42;100075.44;;;32.40;17.91
35952;BME280;22035;51.406;16.194;2023-05-11T11:08:08;100076.40;;;32.47;17.86
35952;BME280;22035;51.406;16.194;2023-05-11T11:10:35;100076.59;;;32.51;17.79
35952;BME280;22035;51.406;16.194;2023-05-11T11:13:04;100071.24;;;32.63;17.69
35952;BME280;22035;51.406;16.194;2023-05-11T11:16:35;100073.04;;;32.52;17.79
35952;BME280;22035;51.406;16.194;2023-05-11T11:19:34;100077.98;;;32.49;17.82
35952;BME280;22035;51.406;16.194;2023-05-11T11:22:01;100081.12;;;32.40;17.92
35952;BME280;22035;51.406;16.194;2023-05-11T11:24:43;100082.66;;;32.52;17.79
35952;BME280;22035;51.406;16.194;2023-05-11T11:27:09;100082.92;;;32.50;17.83
35952;BME280;22035;51.406;16.194;2023-05-11T11:29:36;100083.42;;;32.45;17.87
35952;BME280;22035;51.406;16.194;2023-05-11T11:32:24;100083.16;;;32.37;17.96
35952;BME280;22035;51.406;16.194;2023-05-11T11:34:50;100082.98;;;32.53;17.81
35952;BME280;22035;51.406;16.194;2023-05-11T11:37:16;100088.28;;;32.61;17.73
35952;BME280;22035;51.406;16.194;2023-05-11T11:39:51;100088.55;;;32.43;17.91
35952;BME280;22035;51.406;16.194;2023-05-11T11:42:18;100090.63;;;32.41;17.94
35952;BME280;22035;51.406;16.194;2023-05-11T11:44:50;100089.51;;;32.35;18.01
35952;BME280;22035;51.406;16.194;2023-05-11T11:47:16;100081.85;;;32.38;17.98
35952;BME280;22035;51.406;16.194;2023-05-11T11:49:44;100085.67;;;32.34;18.02
35952;BME280;22035;51.406;16.194;2023-05-11T11:52:11;100080.39;;;32.39;17.98
35952;BME280;22035;51.406;16.194;2023-05-11T11:54:37;100083.99;;;32.42;17.94
35952;BME280;22035;51.406;16.194;2023-05-11T11:57:03;100087.13;;;32.45;17.94
35952;BME280;22035;51.406;16.194;2023-05-11T11:59:29;100086.45;;;32.53;17.86
35952;BME280;22035;51.406;16.194;2023-05-11T12:01:55;100087.56;;;32.51;17.88
35952;BME280;22035;51.406;16.194;2023-05-11T12:04:32;100087.97;;;32.46;17.94
35952;BME280;22035;51.406;16.194;2023-05-11T12:07:02;100085.38;;;32.41;17.99
35952;BME280;22035;51.406;16.194;2023-05-11T12:09:31;100086.33;;;32.38;18.04
35952;BME280;22035;51.406;16.194;2023-05-11T12:11:57;100089.11;;;32.46;17.95
35952;BME280;22035;51.406;16.194;2023-05-11T12:14:25;100086.90;;;32.41;18.01
35952;BME280;22035;51.406;16.194;2023-05-11T12:17:00;100088.11;;;32.57;17.86
35952;BME280;22035;51.406;16.194;2023-05-11T12:19:26;100087.98;;;32.44;17.99
35952;BME280;22035;51.406;16.194;2023-05-11T12:21:51;100082.60;;;32.46;17.97
35952;BME280;22035;51.406;16.194;2023-05-11T12:24:17;100081.92;;;32.47;17.97
35952;BME280;22035;51.406;16.194;2023-05-11T12:26:43;100085.49;;;32.43;18.01
35952;BME280;22035;51.406;16.194;2023-05-11T12:29:11;100084.60;;;32.49;17.96
35952;BME280;22035;51.406;16.194;2023-05-11T12:31:39;100087.13;;;32.42;18.03
35952;BME280;22035;51.406;16.194;2023-05-11T12:34:05;100084.23;;;32.47;17.96
35952;BME280;22035;51.406;16.194;2023-05-11T12:36:32;100080.89;;;32.45;18.00
35952;BME280;22035;51.406;16.194;2023-05-11T12:38:58;100080.51;;;32.40;18.06
35952;BME280;22035;51.406;16.194;2023-05-11T12:41:24;100075.63;;;32.39;18.07
35952;BME280;22035;51.406;16.194;2023-05-11T12:43:50;100074.48;;;32.43;18.02